sensor_id;sensor_type;location;lat;lon;timestamp;pressure;altitude;pressure_sealevel;temperature;humidity
60307;BME280;46155;52.364;6.580;2023-02-28T04:01:47;102869.63;;;2.16;98.78
60307;BME280;46155;52.364;6.580;2023-02-28T04:04:14;102865.16;;;2.15;98.84
60307;BME280;46155;52.364;6.580;2023-02-28T04:06:40;102870.16;;;2.13;100.00
60307;BME280;46155;52.364;6.580;2023-02-28T04:09:08;102873.28;;;2.11;100.00
60307;BME280;46155;52.364;6.580;2023-02-28T04:11:39;102867.19;;;2.10;100.00
60307;BME280;46155;52.364;6.580;2023-02-28T04:14:06;102874.41;;;2.13;100.00
60307;BME280;46155;52.364;6.580;2023-02-28T04:16:34;102870.50;;;2.09;100.00
60307;BME280;46155;52.364;6.580;2023-02-28T04:19:00;102867.00;;;2.09;100.00
60307;BME280;46155;52.364;6.580;2023-02-28T04:21:32;102875.53;;;2.15;100.00
60307;BME280;46155;52.364;6.580;2023-02-28T04:23:58;102874.81;;;2.16;100.00
60307;BME280;46155;52.364;6.580;2023-02-28T04:26:31;102878.13;;;2.15;100.00
60307;BME280;46155;52.364;6.580;2023-02-28T04:28:58;102864.97;;;2.13;100.00
60307;BME280;46155;52.364;6.580;2023-02-28T04:31:23;102876.25;;;2.14;100.00
60307;BME280;46155;52.364;6.580;2023-02-28T04:33:49;102884.78;;;2.13;100.00
60307;BME280;46155;52.364;6.580;2023-02-28T04:36:14;102868.19;;;1.98;100.00
60307;BME280;46155;52.364;6.580;2023-02-28T04:38:43;102877.22;;;1.94;100.00
60307;BME280;46155;52.364;6.580;2023-02-28T04:41:08;102870.19;;;1.93;100.00
60307;BME280;46155;52.364;6.580;2023-02-28T04:43:33;102863.53;;;1.95;100.00
60307;BME280;46155;52.364;6.580;2023-02-28T04:46:02;102870.19;;;1.93;100.00
60307;BME280;46155;52.364;6.580;2023-02-28T04:48:29;102885.41;;;1.77;100.00
60307;BME280;46155;52.364;6.580;2023-02-28T04:50:55;102884.69;;;1.58;100.00
60307;BME280;46155;52.364;6.580;2023-02-28T04:53:24;102877.78;;;1.51;100.00
60307;BME280;46155;52.364;6.580;2023-02-28T04:55:49;102862.19;;;1.44;100.00
60307;BME280;46155;52.364;6.580;2023-02-28T04:58:15;102870.78;;;1.37;100.00
60307;BME280;46155;52.364;6.580;2023-02-28T05:00:41;102862.78;;;1.49;100.00
60307;BME280;46155;52.364;6.580;2023-02-28T05:03:06;102855.50;;;1.59;100.00
60307;BME280;46155;52.364;6.580;2023-02-28T05:05:32;102853.28;;;1.62;100.00
60307;BME280;46155;52.364;6.580;2023-02-28T05:07:57;102866.63;;;1.65;100.00
60307;BME280;46155;52.364;6.580;2023-02-28T05:10:22;102871.34;;;1.55;100.00
60307;BME280;46155;52.364;6.580;2023-02-28T05:12:48;102879.38;;;1.44;100.00
60307;BME280;46155;52.364;6.580;2023-02-28T05:15:14;102870.91;;;1.45;100.00
60307;BME280;46155;52.364;6.580;2023-02-28T05:17:40;102847.25;;;1.49;100.00
60307;BME280;46155;52.364;6.580;2023-02-28T05:20:06;102859.59;;;1.64;100.00
60307;BME280;46155;52.364;6.580;2023-02-28T05:22:31;102868.44;;;1.59;100.00
60307;BME280;46155;52.364;6.580;2023-02-28T05:24:57;102870.41;;;1.54;100.00
60307;BME280;46155;52.364;6.580;2023-02-28T05:27:22;102848.31;;;1.44;100.00
60307;BME280;46155;52.364;6.580;2023-02-28T05:29:47;102874.34;;;1.58;100.00
60307;BME280;46155;52.364;6.580;2023-02-28T05:32:13;102867.22;;;1.50;100.00
60307;BME280;46155;52.364;6.580;2023-02-28T05:34:38;102879.84;;;1.54;100.00
60307;BME280;46155;52.364;6.580;2023-02-28T05:37:05;102888.00;;;1.57;100.00
60307;BME280;46155;52.364;6.580;2023-02-28T05:39:31;102882.16;;;1.65;100.00
60307;BME280;46155;52.364;6.580;2023-02-28T05:41:56;102890.19;;;1.74;100.00
60307;BME280;46155;52.364;6.580;2023-02-28T05:44:21;102889.28;;;1.74;100.00
60307;BME280;46155;52.364;6.580;2023-02-28T05:46:47;102889.66;;;1.77;100.00
60307;BME280;46155;52.364;6.580;2023-02-28T05:49:12;102897.50;;;1.84;100.00
60307;BME280;46155;52.364;6.580;2023-02-28T05:51:37;102892.38;;;1.91;100.00
60307;BME280;46155;52.364;6.580;2023-02-28T05:54:05;102884.41;;;1.89;100.00
60307;BME280;46155;52.364;6.580;2023-02-28T05:56:31;102870.16;;;1.86;100.00
60307;BME280;46155;52.364;6.580;2023-02-28T05:58:57;102884.03;;;1.86;100.00
60307;BME280;46155;52.364;6.580;2023-02-28T06:01:35;102887.84;;;1.83;100.00
60307;BME280;46155;52.364;6.580;2023-02-28T06:04:02;102889.66;;;1.77;100.00
60307;BME280;46155;52.364;6.580;2023-02-28T06:06:28;102900.09;;;1.84;100.00
60307;BME280;46155;52.364;6.580;2023-02-28T06:08:59;102881.13;;;1.70;100.00
60307;BME280;46155;52.364;6.580;2023-02-28T06:11:24;102891.19;;;1.82;100.00
60307;BME280;46155;52.364;6.580;2023-02-28T06:13:56;102898.16;;;1.76;100.00
60307;BME280;46155;52.364;6.580;2023-02-28T06:16:23;102895.69;;;1.70;100.00
60307;BME280;46155;52.364;6.580;2023-02-28T06:18:48;102894.91;;;1.64;100.00
60307;BME280;46155;52.364;6.580;2023-02-28T06:21:13;102896.84;;;1.52;100.00
60307;BME280;46155;52.364;6.580;2023-02-28T06:23:39;102909.59;;;1.50;100.00
60307;BME280;46155;52.364;6.580;2023-02-28T06:26:04;102890.78;;;1.38;100.00
60307;BME280;46155;52.364;6.580;2023-02-28T06:28:31;102912.63;;;1.41;100.00
60307;BME280;46155;52.364;6.580;2023-02-28T06:30:56;102911.72;;;1.27;100.00
60307;BME280;46155;52.364;6.580;2023-02-28T06:33:22;102904.97;;;1.15;100.00
60307;BME280;46155;52.364;6.580;2023-02-28T06:35:50;102922.09;;;1.27;100.00
60307;BME280;46155;52.364;6.580;2023-02-28T06:38:15;102916.50;;;1.24;100.00
60307;BME280;46155;52.364;6.580;2023-02-28T06:40:41;102931.13;;;1.24;100.00
60307;BME280;46155;52.364;6.580;2023-02-28T06:43:06;102932.44;;;1.27;100.00
60307;BME280;46155;52.364;6.580;2023-02-28T06:45:32;102937.50;;;1.33;100.00
60307;BME280;46155;52.364;6.580;2023-02-28T06:47:57;102936.97;;;1.35;100.00
60307;BME280;46155;52.364;6.580;2023-02-28T06:50:23;102930.75;;;1.41;100.00
60307;BME280;46155;52.364;6.580;2023-02-28T06:52:48;102937.44;;;1.46;100.00
60307;BME280;46155;52.364;6.580;2023-02-28T06:55:18;102940.47;;;1.69;100.00
60307;BME280;46155;52.364;6.580;2023-02-28T06:57:44;102945.59;;;1.82;100.00
60307;BME280;46155;52.364;6.580;2023-02-28T07:00:10;102947.78;;;1.79;100.00
60307;BME280;46155;52.364;6.580;2023-02-28T07:02:36;102944.78;;;1.76;100.00
60307;BME280;46155;52.364;6.580;2023-02-28T07:05:03;102935.16;;;1.75;100.00
60307;BME280;46155;52.364;6.580;2023-02-28T07:07:28;102943.78;;;1.88;100.00
60307;BME280;46155;52.364;6.580;2023-02-28T07:09:53;102949.03;;;1.95;100.00
60307;BME280;46155;52.364;6.580;2023-02-28T07:12:19;102954.94;;;1.94;99.04
60307;BME280;46155;52.364;6.580;2023-02-28T07:14:44;102955.50;;;1.92;99.17
60307;BME280;46155;52.364;6.580;2023-02-28T07:17:10;102957.31;;;1.93;98.59
60307;BME280;46155;52.364;6.580;2023-02-28T07:19:38;102951.63;;;1.95;97.78
60307;BME280;46155;52.364;6.580;2023-02-28T07:22:03;102952.97;;;1.99;97.49
60307;BME280;46155;52.364;6.580;2023-02-28T07:24:28;102952.97;;;1.99;95.79
60307;BME280;46155;52.364;6.580;2023-02-28T07:26:54;102958.00;;;2.04;95.15
60307;BME280;46155;52.364;6.580;2023-02-28T07:29:20;102961.91;;;2.08;94.27
60307;BME280;46155;52.364;6.580;2023-02-28T07:31:45;102963.97;;;2.11;94.30
60307;BME280;46155;52.364;6.580;2023-02-28T07:34:11;102953.59;;;2.11;93.72
60307;BME280;46155;52.364;6.580;2023-02-28T07:36:37;102962.91;;;2.16;91.19
60307;BME280;46155;52.364;6.580;2023-02-28T07:39:02;102970.75;;;2.23;91.59
60307;BME280;46155;52.364;6.580;2023-02-28T07:41:29;102971.53;;;2.29;90.04
60307;BME280;46155;52.364;6.580;2023-02-28T07:43:58;102978.97;;;2.33;88.64
60307;BME280;46155;52.364;6.580;2023-02-28T07:46:25;102967.28;;;2.30;87.44
60307;BME280;46155;52.364;6.580;2023-02-28T07:48:51;102954.81;;;2.20;85.53
60307;BME280;46155;52.364;6.580;2023-02-28T07:51:16;102968.72;;;2.28;85.46
60307;BME280;46155;52.364;6.580;2023-02-28T07:53:42;102972.25;;;2.28;84.23
60307;BME280;46155;52.364;6.580;2023-02-28T07:56:08;102979.13;;;2.55;84.05
60307;BME280;46155;52.364;6.580;2023-02-28T07:58:33;102975.19;;;2.79;85.29
60307;BME280;46155;52.364;6.580;2023-02-28T08:01:07;102966.03;;;2.95;80.87
60307;BME280;46155;52.364;6.580;2023-02-28T08:03:32;102974.59;;;3.08;80.20
60307;BME280;46155;52.364;6.580;2023-02-28T08:05:57;102978.81;;;3.35;78.65
60307;BME280;46155;52.364;6.580;2023-02-28T08:08:23;102977.38;;;3.44;75.11
60307;BME280;46155;52.364;6.580;2023-02-28T08:10:48;102981.81;;;3.53;73.33
60307;BME280;46155;52.364;6.580;2023-02-28T08:13:13;102979.84;;;3.72;73.72
60307;BME280;46155;52.364;6.580;2023-02-28T08:15:41;102980.06;;;4.09;73.65
60307;BME280;46155;52.364;6.580;2023-02-28T08:18:07;102979.31;;;4.39;70.62
60307;BME280;46155;52.364;6.580;2023-02-28T08:20:33;102984.91;;;4.50;66.42
60307;BME280;46155;52.364;6.580;2023-02-28T08:22:58;102981.91;;;4.61;68.07
60307;BME280;46155;52.364;6.580;2023-02-28T08:25:23;102991.16;;;4.88;69.08
60307;BME280;46155;52.364;6.580;2023-02-28T08:27:51;102989.22;;;5.01;64.68
60307;BME280;46155;52.364;6.580;2023-02-28T08:30:17;102982.84;;;5.21;65.53
60307;BME280;46155;52.364;6.580;2023-02-28T08:32:42;102990.00;;;5.45;61.97
60307;BME280;46155;52.364;6.580;2023-02-28T08:35:08;102996.31;;;5.40;56.02
60307;BME280;46155;52.364;6.580;2023-02-28T08:37:36;102991.44;;;5.12;53.75
60307;BME280;46155;52.364;6.580;2023-02-28T08:40:02;102985.13;;;5.10;52.25
60307;BME280;46155;52.364;6.580;2023-02-28T08:42:29;102987.56;;;4.94;51.42
60307;BME280;46155;52.364;6.580;2023-02-28T08:44:54;102989.88;;;4.70;52.41
60307;BME280;46155;52.364;6.580;2023-02-28T08:47:19;102989.13;;;4.63;53.08
60307;BME280;46155;52.364;6.580;2023-02-28T08:49:45;102984.50;;;4.61;51.25
60307;BME280;46155;52.364;6.580;2023-02-28T08:52:10;102985.94;;;4.73;53.49
60307;BME280;46155;52.364;6.580;2023-02-28T08:54:35;102990.38;;;4.89;50.97
60307;BME280;46155;52.364;6.580;2023-02-28T08:57:02;102979.00;;;5.03;51.36
60307;BME280;46155;52.364;6.580;2023-02-28T08:59:27;102988.03;;;5.28;51.18
60307;BME280;46155;52.364;6.580;2023-02-28T09:01:53;102978.78;;;5.53;49.55
60307;BME280;46155;52.364;6.580;2023-02-28T09:04:18;102982.25;;;5.61;49.29
60307;BME280;46155;52.364;6.580;2023-02-28T09:06:43;102992.50;;;5.29;47.31
60307;BME280;46155;52.364;6.580;2023-02-28T09:09:09;102977.31;;;5.03;49.75
60307;BME280;46155;52.364;6.580;2023-02-28T09:11:35;102993.59;;;5.31;50.16
60307;BME280;46155;52.364;6.580;2023-02-28T09:14:00;102999.91;;;5.26;48.53
60307;BME280;46155;52.364;6.580;2023-02-28T09:16:28;102998.81;;;5.24;48.44
60307;BME280;46155;52.364;6.580;2023-02-28T09:18:54;102995.31;;;5.23;49.24
60307;BME280;46155;52.364;6.580;2023-02-28T09:21:19;102992.06;;;5.33;52.02
60307;BME280;46155;52.364;6.580;2023-02-28T09:23:46;102986.00;;;5.56;49.52
60307;BME280;46155;52.364;6.580;2023-02-28T09:26:16;102991.00;;;5.24;43.66
60307;BME280;46155;52.364;6.580;2023-02-28T09:28:42;102990.91;;;5.45;48.02
60307;BME280;46155;52.364;6.580;2023-02-28T09:31:12;102986.69;;;5.69;45.04
60307;BME280;46155;52.364;6.580;2023-02-28T09:33:37;102989.06;;;5.75;45.08
60307;BME280;46155;52.364;6.580;2023-02-28T09:36:03;102975.63;;;5.48;44.40
60307;BME280;46155;52.364;6.580;2023-02-28T09:38:29;102988.69;;;5.41;45.47
60307;BME280;46155;52.364;6.580;2023-02-28T09:41:03;102989.13;;;5.67;45.91
60307;BME280;46155;52.364;6.580;2023-02-28T09:43:33;102983.59;;;5.88;45.49
60307;BME280;46155;52.364;6.580;2023-02-28T09:46:08;102982.31;;;6.14;46.27
60307;BME280;46155;52.364;6.580;2023-02-28T09:48:41;102985.38;;;6.03;43.42
60307;BME280;46155;52.364;6.580;2023-02-28T09:54:13;102979.13;;;5.56;42.62
60307;BME280;46155;52.364;6.580;2023-02-28T09:56:45;102971.88;;;5.84;47.64
60307;BME280;46155;52.364;6.580;2023-02-28T09:59:49;102977.63;;;5.89;42.64
60307;BME280;46155;52.364;6.580;2023-02-28T10:05:02;102993.53;;;5.76;41.90
60307;BME280;46155;52.364;6.580;2023-02-28T10:10:43;102977.47;;;5.87;45.32
60307;BME280;46155;52.364;6.580;2023-02-28T10:16:11;102973.44;;;6.05;43.74
60307;BME280;46155;52.364;6.580;2023-02-28T10:18:46;102953.44;;;5.59;42.28
60307;BME280;46155;52.364;6.580;2023-02-28T10:21:27;102972.75;;;5.99;43.15
60307;BME280;46155;52.364;6.580;2023-02-28T10:24:02;102973.44;;;6.05;42.72
60307;BME280;46155;52.364;6.580;2023-02-28T10:26:28;102976.34;;;6.15;43.08
60307;BME280;46155;52.364;6.580;2023-02-28T10:28:55;102975.56;;;6.16;41.81
60307;BME280;46155;52.364;6.580;2023-02-28T10:31:21;102976.94;;;6.13;42.27
60307;BME280;46155;52.364;6.580;2023-02-28T10:33:47;102975.34;;;6.22;42.40
60307;BME280;46155;52.364;6.580;2023-02-28T10:36:18;102973.56;;;6.37;41.67
60307;BME280;46155;52.364;6.580;2023-02-28T10:38:45;102980.97;;;6.41;41.58
60307;BME280;46155;52.364;6.580;2023-02-28T10:44:13;102983.34;;;5.32;42.28
60307;BME280;46155;52.364;6.580;2023-02-28T10:46:40;102970.94;;;5.15;42.87
60307;BME280;46155;52.364;6.580;2023-02-28T10:49:13;102979.19;;;4.97;42.33
60307;BME280;46155;52.364;6.580;2023-02-28T10:51:40;102977.50;;;5.12;44.34
60307;BME280;46155;52.364;6.580;2023-02-28T10:54:17;102973.19;;;5.50;44.49
60307;BME280;46155;52.364;6.580;2023-02-28T10:56:43;102977.84;;;5.52;42.47
60307;BME280;46155;52.364;6.580;2023-02-28T11:01:45;102951.41;;;5.19;42.68
60307;BME280;46155;52.364;6.580;2023-02-28T11:07:21;102961.41;;;5.30;46.03
60307;BME280;46155;52.364;6.580;2023-02-28T11:09:51;102975.00;;;5.28;45.16
60307;BME280;46155;52.364;6.580;2023-02-28T11:12:21;102956.03;;;5.29;46.29
60307;BME280;46155;52.364;6.580;2023-02-28T11:14:49;102958.75;;;5.68;45.82
60307;BME280;46155;52.364;6.580;2023-02-28T11:17:24;102957.72;;;5.59;45.69
60307;BME280;46155;52.364;6.580;2023-02-28T11:19:54;102954.41;;;5.83;45.18
60307;BME280;46155;52.364;6.580;2023-02-28T11:22:24;102953.63;;;5.84;45.52
60307;BME280;46155;52.364;6.580;2023-02-28T11:24:53;102955.22;;;5.37;45.53
60307;BME280;46155;52.364;6.580;2023-02-28T11:29:55;102957.50;;;5.27;46.50
60307;BME280;46155;52.364;6.580;2023-02-28T11:32:21;102951.03;;;5.23;48.30
60307;BME280;46155;52.364;6.580;2023-02-28T11:37:27;102944.84;;;4.85;46.53
60307;BME280;46155;52.364;6.580;2023-02-28T11:39:53;102934.19;;;5.05;47.31
60307;BME280;46155;52.364;6.580;2023-02-28T11:42:46;102934.09;;;5.20;47.11
60307;BME280;46155;52.364;6.580;2023-02-28T11:45:37;102931.03;;;5.38;47.51
60307;BME280;46155;52.364;6.580;2023-02-28T11:48:30;102929.63;;;5.56;47.22
60307;BME280;46155;52.364;6.580;2023-02-28T11:50:59;102930.03;;;5.75;46.91
60307;BME280;46155;52.364;6.580;2023-02-28T11:53:47;102931.75;;;5.98;45.55
60307;BME280;46155;52.364;6.580;2023-02-28T11:56:49;102925.34;;;6.10;44.83
60307;BME280;46155;52.364;6.580;2023-02-28T12:04:54;102918.84;;;6.30;46.44
60307;BME280;46155;52.364;6.580;2023-02-28T12:07:39;102910.16;;;5.99;46.58
60307;BME280;46155;52.364;6.580;2023-02-28T12:13:21;102914.47;;;5.98;45.44
60307;BME280;46155;52.364;6.580;2023-02-28T12:16:00;102913.66;;;5.53;46.78
60307;BME280;46155;52.364;6.580;2023-02-28T12:24:50;102910.75;;;6.19;45.84
60307;BME280;46155;52.364;6.580;2023-02-28T12:27:19;102903.34;;;5.62;44.95
60307;BME280;46155;52.364;6.580;2023-02-28T12:29:55;102906.81;;;5.69;46.02
60307;BME280;46155;52.364;6.580;2023-02-28T12:32:36;102887.78;;;5.55;45.31
60307;BME280;46155;52.364;6.580;2023-02-28T12:37:46;102890.59;;;5.95;46.22
60307;BME280;46155;52.364;6.580;2023-02-28T12:40:17;102880.06;;;5.86;44.43
60307;BME280;46155;52.364;6.580;2023-02-28T12:43:00;102891.50;;;5.80;45.28
60307;BME280;46155;52.364;6.580;2023-02-28T12:45:40;102883.81;;;5.58;45.00
60307;BME280;46155;52.364;6.580;2023-02-28T12:48:11;102872.25;;;5.33;46.35
60307;BME280;46155;52.364;6.580;2023-02-28T12:50:39;102880.00;;;5.47;47.19
60307;BME280;46155;52.364;6.580;2023-02-28T12:53:24;102877.34;;;5.55;45.62
60307;BME280;46155;52.364;6.580;2023-02-28T12:56:07;102850.94;;;5.51;45.09
60307;BME280;46155;52.364;6.580;2023-02-28T12:58:37;102858.22;;;5.47;45.53
60307;BME280;46155;52.364;6.580;2023-02-28T13:06:53;102856.50;;;6.01;43.79
60307;BME280;46155;52.364;6.580;2023-02-28T13:09:23;102845.16;;;5.77;43.86
60307;BME280;46155;52.364;6.580;2023-02-28T13:11:53;102845.03;;;5.92;44.65
60307;BME280;46155;52.364;6.580;2023-02-28T13:17:10;102843.97;;;5.82;44.64
60307;BME280;46155;52.364;6.580;2023-02-28T13:24:54;102839.25;;;5.48;45.17
60307;BME280;46155;52.364;6.580;2023-02-28T13:27:35;102840.97;;;5.63;44.75
60307;BME280;46155;52.364;6.580;2023-02-28T13:33:33;102838.75;;;5.82;43.92
60307;BME280;46155;52.364;6.580;2023-02-28T13:38:42;102839.91;;;5.54;43.77
60307;BME280;46155;52.364;6.580;2023-02-28T13:44:13;102837.88;;;5.59;44.77
60307;BME280;46155;52.364;6.580;2023-02-28T13:51:49;102838.31;;;5.47;44.62
60307;BME280;46155;52.364;6.580;2023-02-28T14:03:17;102834.00;;;5.71;45.93
60307;BME280;46155;52.364;6.580;2023-02-28T14:06:08;102840.41;;;5.66;44.51
60307;BME280;46155;52.364;6.580;2023-02-28T14:08:34;102819.97;;;5.62;45.11
60307;BME280;46155;52.364;6.580;2023-02-28T14:11:22;102835.88;;;5.72;44.86
60307;BME280;46155;52.364;6.580;2023-02-28T14:13:48;102829.03;;;5.89;45.56
60307;BME280;46155;52.364;6.580;2023-02-28T14:16:20;102828.22;;;5.97;45.61
60307;BME280;46155;52.364;6.580;2023-02-28T14:19:12;102823.00;;;5.97;46.32
60307;BME280;46155;52.364;6.580;2023-02-28T14:27:26;102813.63;;;5.60;45.52
60307;BME280;46155;52.364;6.580;2023-02-28T14:32:51;102811.91;;;5.67;45.95
60307;BME280;46155;52.364;6.580;2023-02-28T14:38:05;102817.56;;;5.79;47.46
60307;BME280;46155;52.364;6.580;2023-02-28T14:40:33;102811.09;;;5.99;46.33
60307;BME280;46155;52.364;6.580;2023-02-28T14:43:03;102811.94;;;6.07;45.72
60307;BME280;46155;52.364;6.580;2023-02-28T14:45:31;102806.22;;;6.02;46.24
60307;BME280;46155;52.364;6.580;2023-02-28T14:47:58;102794.59;;;5.68;45.51
60307;BME280;46155;52.364;6.580;2023-02-28T14:50:29;102799.78;;;5.68;46.48
60307;BME280;46155;52.364;6.580;2023-02-28T14:52:55;102801.34;;;5.82;46.70
60307;BME280;46155;52.364;6.580;2023-02-28T14:55:32;102814.59;;;5.99;46.95
60307;BME280;46155;52.364;6.580;2023-02-28T14:58:04;102804.00;;;5.98;46.53
60307;BME280;46155;52.364;6.580;2023-02-28T15:00:36;102803.81;;;5.96;46.54
60307;BME280;46155;52.364;6.580;2023-02-28T15:03:35;102806.22;;;6.02;46.63
60307;BME280;46155;52.364;6.580;2023-02-28T15:06:11;102800.34;;;6.28;51.04
60307;BME280;46155;52.364;6.580;2023-02-28T15:08:37;102803.63;;;6.34;46.87
60307;BME280;46155;52.364;6.580;2023-02-28T15:11:14;102806.66;;;6.30;46.13
60307;BME280;46155;52.364;6.580;2023-02-28T15:13:54;102799.84;;;6.07;45.66
60307;BME280;46155;52.364;6.580;2023-02-28T15:16:29;102807.72;;;6.00;45.46
60307;BME280;46155;52.364;6.580;2023-02-28T15:21:47;102797.19;;;5.91;46.38
60307;BME280;46155;52.364;6.580;2023-02-28T15:24:18;102797.41;;;5.85;46.60
60307;BME280;46155;52.364;6.580;2023-02-28T15:26:56;102795.91;;;5.88;46.25
60307;BME280;46155;52.364;6.580;2023-02-28T15:29:24;102777.47;;;5.70;46.02
60307;BME280;46155;52.364;6.580;2023-02-28T15:31:56;102797.19;;;5.68;46.22
60307;BME280;46155;52.364;6.580;2023-02-28T15:34:42;102795.22;;;5.58;46.39
60307;BME280;46155;52.364;6.580;2023-02-28T15:39:53;102800.75;;;5.68;47.17
60307;BME280;46155;52.364;6.580;2023-02-28T15:42:21;102803.03;;;5.58;47.10
60307;BME280;46155;52.364;6.580;2023-02-28T15:44:47;102805.66;;;5.58;47.41
60307;BME280;46155;52.364;6.580;2023-02-28T15:47:19;102794.88;;;5.55;47.65
60307;BME280;46155;52.364;6.580;2023-02-28T15:52:18;102804.06;;;5.51;46.58
60307;BME280;46155;52.364;6.580;2023-02-28T15:54:46;102802.47;;;5.61;47.41
60307;BME280;46155;52.364;6.580;2023-02-28T15:57:28;102799.53;;;5.58;48.25
60307;BME280;46155;52.364;6.580;2023-02-28T15:59:56;102800.78;;;5.61;46.59
60307;BME280;46155;52.364;6.580;2023-02-28T16:02:35;102787.56;;;5.60;46.53
60307;BME280;46155;52.364;6.580;2023-02-28T16:07:41;102804.06;;;5.51;47.04
60307;BME280;46155;52.364;6.580;2023-02-28T16:10:09;102803.28;;;5.52;46.85
60307;BME280;46155;52.364;6.580;2023-02-28T16:12:37;102804.50;;;5.40;46.48
60307;BME280;46155;52.364;6.580;2023-02-28T16:15:20;102809.34;;;5.37;46.40
60307;BME280;46155;52.364;6.580;2023-02-28T16:17:47;102804.69;;;5.42;47.38
60307;BME280;46155;52.364;6.580;2023-02-28T16:20:17;102809.72;;;5.40;47.74
60307;BME280;46155;52.364;6.580;2023-02-28T16:22:43;102807.13;;;5.40;47.42
60307;BME280;46155;52.364;6.580;2023-02-28T16:25:13;102802.31;;;5.36;47.39
60307;BME280;46155;52.364;6.580;2023-02-28T16:27:39;102796.59;;;5.24;46.60
60307;BME280;46155;52.364;6.580;2023-02-28T16:30:06;102802.19;;;5.27;47.25
60307;BME280;46155;52.364;6.580;2023-02-28T16:32:35;102797.22;;;5.22;47.63
60307;BME280;46155;52.364;6.580;2023-02-28T16:35:01;102805.44;;;5.17;47.63
60307;BME280;46155;52.364;6.580;2023-02-28T16:37:27;102800.22;;;5.17;47.38
60307;BME280;46155;52.364;6.580;2023-02-28T16:39:53;102804.69;;;5.11;48.00
60307;BME280;46155;52.364;6.580;2023-02-28T16:42:23;102813.28;;;5.10;47.65
60307;BME280;46155;52.364;6.580;2023-02-28T16:44:50;102810.13;;;5.06;48.46
60307;BME280;46155;52.364;6.580;2023-02-28T16:47:17;102815.00;;;5.03;48.16
60307;BME280;46155;52.364;6.580;2023-02-28T16:49:42;102817.81;;;4.97;48.62
60307;BME280;46155;52.364;6.580;2023-02-28T16:52:09;102815.41;;;4.91;48.55
60307;BME280;46155;52.364;6.580;2023-02-28T16:54:35;102826.41;;;4.89;47.75
60307;BME280;46155;52.364;6.580;2023-02-28T16:57:01;102825.13;;;4.85;47.98
60307;BME280;46155;52.364;6.580;2023-02-28T16:59:27;102821.41;;;4.83;48.46
60307;BME280;46155;52.364;6.580;2023-02-28T17:01:53;102827.00;;;4.79;48.98
60307;BME280;46155;52.364;6.580;2023-02-28T17:04:19;102826.47;;;4.74;48.92
60307;BME280;46155;52.364;6.580;2023-02-28T17:06:44;102829.47;;;4.70;48.87
60307;BME280;46155;52.364;6.580;2023-02-28T17:09:18;102826.16;;;4.64;49.06
60307;BME280;46155;52.364;6.580;2023-02-28T17:11:45;102835.81;;;4.58;49.99
60307;BME280;46155;52.364;6.580;2023-02-28T17:14:11;102827.53;;;4.46;48.83
60307;BME280;46155;52.364;6.580;2023-02-28T17:16:37;102825.09;;;4.47;49.80
60307;BME280;46155;52.364;6.580;2023-02-28T17:19:12;102841.06;;;4.51;49.60
60307;BME280;46155;52.364;6.580;2023-02-28T17:21:38;102826.44;;;4.44;49.85
60307;BME280;46155;52.364;6.580;2023-02-28T17:24:04;102842.78;;;4.43;49.68
60307;BME280;46155;52.364;6.580;2023-02-28T17:26:30;102847.06;;;4.42;50.10
60307;BME280;46155;52.364;6.580;2023-02-28T17:28:56;102843.16;;;4.39;49.76
60307;BME280;46155;52.364;6.580;2023-02-28T17:31:23;102857.44;;;4.35;50.75
60307;BME280;46155;52.364;6.580;2023-02-28T17:33:48;102854.13;;;4.29;50.13
60307;BME280;46155;52.364;6.580;2023-02-28T17:36:15;102852.84;;;4.25;50.13
60307;BME280;46155;52.364;6.580;2023-02-28T17:38:41;102868.47;;;4.25;50.09
60307;BME280;46155;52.364;6.580;2023-02-28T17:41:10;102868.66;;;4.20;50.16
60307;BME280;46155;52.364;6.580;2023-02-28T17:43:35;102867.91;;;4.13;50.50
60307;BME280;46155;52.364;6.580;2023-02-28T17:46:00;102872.38;;;4.07;50.32
60307;BME280;46155;52.364;6.580;2023-02-28T17:48:26;102876.06;;;4.09;50.43
60307;BME280;46155;52.364;6.580;2023-02-28T17:50:52;102877.94;;;4.03;50.41
60307;BME280;46155;52.364;6.580;2023-02-28T17:53:19;102870.16;;;4.03;50.76
60307;BME280;46155;52.364;6.580;2023-02-28T17:55:44;102872.38;;;4.00;51.25
60307;BME280;46155;52.364;6.580;2023-02-28T17:58:10;102872.22;;;3.99;51.46
60307;BME280;46155;52.364;6.580;2023-02-28T18:00:37;102867.94;;;3.99;52.29
60307;BME280;46155;52.364;6.580;2023-02-28T18:03:03;102872.00;;;4.04;53.27
60307;BME280;46155;52.364;6.580;2023-02-28T18:05:28;102866.41;;;4.01;51.68
60307;BME280;46155;52.364;6.580;2023-02-28T18:07:54;102867.00;;;3.99;53.04
60307;BME280;46155;52.364;6.580;2023-02-28T18:10:20;102864.22;;;3.97;53.51
60307;BME280;46155;52.364;6.580;2023-02-28T18:12:47;102870.16;;;3.89;52.66
60307;BME280;46155;52.364;6.580;2023-02-28T18:15:13;102853.09;;;3.76;54.53
60307;BME280;46155;52.364;6.580;2023-02-28T18:17:38;102873.88;;;3.76;54.98
60307;BME280;46155;52.364;6.580;2023-02-28T18:20:04;102867.19;;;3.71;55.44
60307;BME280;46155;52.364;6.580;2023-02-28T18:22:30;102877.03;;;3.67;55.77
60307;BME280;46155;52.364;6.580;2023-02-28T18:24:55;102865.91;;;3.60;56.75
60307;BME280;46155;52.364;6.580;2023-02-28T18:27:21;102875.34;;;3.60;56.48
60307;BME280;46155;52.364;6.580;2023-02-28T18:29:46;102872.19;;;3.55;56.72
60307;BME280;46155;52.364;6.580;2023-02-28T18:32:13;102863.47;;;3.40;57.41
60307;BME280;46155;52.364;6.580;2023-02-28T18:34:39;102862.13;;;3.30;59.39
60307;BME280;46155;52.364;6.580;2023-02-28T18:37:05;102854.38;;;3.51;63.12
60307;BME280;46155;52.364;6.580;2023-02-28T18:39:30;102867.41;;;3.73;60.24
60307;BME280;46155;52.364;6.580;2023-02-28T18:41:56;102869.81;;;3.86;59.00
60307;BME280;46155;52.364;6.580;2023-02-28T18:44:21;102859.78;;;3.89;61.27
60307;BME280;46155;52.364;6.580;2023-02-28T18:46:48;102866.81;;;3.75;57.48
60307;BME280;46155;52.364;6.580;2023-02-28T18:49:13;102865.72;;;3.52;58.50